sensor_id;sensor_type;location;lat;lon;timestamp;temperature;humidity
5218;DHT22;26539;51.064;6.346;2023-05-23T00:01:33;16.60;99.90
5218;DHT22;26539;51.064;6.346;2023-05-23T00:04:02;16.60;1.00
5218;DHT22;26539;51.064;6.346;2023-05-23T00:06:28;16.50;1.00
5218;DHT22;26539;51.064;6.346;2023-05-23T00:08:54;16.50;1.00
5218;DHT22;26539;51.064;6.346;2023-05-23T00:11:20;16.50;1.00
5218;DHT22;26539;51.064;6.346;2023-05-23T00:13:54;16.50;1.00
5218;DHT22;26539;51.064;6.346;2023-05-23T00:16:20;16.50;36.10
5218;DHT22;26539;51.064;6.346;2023-05-23T00:18:46;16.50;99.90
5218;DHT22;26539;51.064;6.346;2023-05-23T00:21:11;16.40;99.90
5218;DHT22;26539;51.064;6.346;2023-05-23T00:23:41;16.40;99.90
5218;DHT22;26539;51.064;6.346;2023-05-23T00:26:07;16.40;99.90
5218;DHT22;26539;51.064;6.346;2023-05-23T00:28:33;16.40;99.90
5218;DHT22;26539;51.064;6.346;2023-05-23T00:30:59;16.40;99.90
5218;DHT22;26539;51.064;6.346;2023-05-23T00:33:24;16.40;99.90
5218;DHT22;26539;51.064;6.346;2023-05-23T00:35:50;16.40;1.00
5218;DHT22;26539;51.064;6.346;2023-05-23T00:38:16;16.50;1.00
5218;DHT22;26539;51.064;6.346;2023-05-23T00:40:41;16.50;1.00
5218;DHT22;26539;51.064;6.346;2023-05-23T00:43:07;16.60;1.00
5218;DHT22;26539;51.064;6.346;2023-05-23T00:45:32;16.60;1.00
5218;DHT22;26539;51.064;6.346;2023-05-23T00:47:58;16.60;1.00
5218;DHT22;26539;51.064;6.346;2023-05-23T00:50:24;16.60;1.00
5218;DHT22;26539;51.064;6.346;2023-05-23T00:52:53;16.60;1.00
5218;DHT22;26539;51.064;6.346;2023-05-23T00:55:19;16.60;93.50
5218;DHT22;26539;51.064;6.346;2023-05-23T00:57:45;16.60;99.90
5218;DHT22;26539;51.064;6.346;2023-05-23T01:00:12;16.60;99.90
5218;DHT22;26539;51.064;6.346;2023-05-23T01:02:46;16.60;99.90
5218;DHT22;26539;51.064;6.346;2023-05-23T01:05:13;16.60;99.90
5218;DHT22;26539;51.064;6.346;2023-05-23T01:07:43;16.60;48.40
5218;DHT22;26539;51.064;6.346;2023-05-23T01:10:09;16.60;1.00
5218;DHT22;26539;51.064;6.346;2023-05-23T01:18:35;16.50;99.90
5218;DHT22;26539;51.064;6.346;2023-05-23T01:21:10;16.50;44.80
5218;DHT22;26539;51.064;6.346;2023-05-23T01:26:44;16.50;56.60
5218;DHT22;26539;51.064;6.346;2023-05-23T01:29:21;16.50;1.00
5218;DHT22;26539;51.064;6.346;2023-05-23T01:31:52;16.50;1.00
5218;DHT22;26539;51.064;6.346;2023-05-23T01:34:18;16.50;99.90
5218;DHT22;26539;51.064;6.346;2023-05-23T01:36:45;16.50;99.90
5218;DHT22;26539;51.064;6.346;2023-05-23T01:39:13;16.50;99.90
5218;DHT22;26539;51.064;6.346;2023-05-23T01:41:39;16.50;99.90
5218;DHT22;26539;51.064;6.346;2023-05-23T01:44:05;16.40;99.90
5218;DHT22;26539;51.064;6.346;2023-05-23T01:46:32;16.40;99.90
5218;DHT22;26539;51.064;6.346;2023-05-23T01:49:00;16.40;99.90
5218;DHT22;26539;51.064;6.346;2023-05-23T01:51:25;16.40;99.90
5218;DHT22;26539;51.064;6.346;2023-05-23T01:53:51;16.40;99.90
5218;DHT22;26539;51.064;6.346;2023-05-23T01:56:19;16.40;99.90
5218;DHT22;26539;51.064;6.346;2023-05-23T01:58:46;16.40;1.00
5218;DHT22;26539;51.064;6.346;2023-05-23T02:01:11;16.40;99.90
5218;DHT22;26539;51.064;6.346;2023-05-23T02:03:37;16.30;99.90
5218;DHT22;26539;51.064;6.346;2023-05-23T02:06:03;16.30;99.90
5218;DHT22;26539;51.064;6.346;2023-05-23T02:08:28;16.30;99.90
5218;DHT22;26539;51.064;6.346;2023-05-23T02:10:54;16.30;99.90
5218;DHT22;26539;51.064;6.346;2023-05-23T02:13:19;16.30;1.00
5218;DHT22;26539;51.064;6.346;2023-05-23T02:15:45;16.30;1.00
5218;DHT22;26539;51.064;6.346;2023-05-23T02:18:11;16.30;1.00
5218;DHT22;26539;51.064;6.346;2023-05-23T02:20:37;16.30;1.00
5218;DHT22;26539;51.064;6.346;2023-05-23T02:23:02;16.30;1.00
5218;DHT22;26539;51.064;6.346;2023-05-23T02:25:28;16.30;1.00
5218;DHT22;26539;51.064;6.346;2023-05-23T02:27:53;16.30;99.90
5218;DHT22;26539;51.064;6.346;2023-05-23T02:30:19;16.30;99.90
5218;DHT22;26539;51.064;6.346;2023-05-23T02:32:44;16.30;99.90
5218;DHT22;26539;51.064;6.346;2023-05-23T02:35:11;16.30;99.90
5218;DHT22;26539;51.064;6.346;2023-05-23T02:37:36;16.30;99.90
5218;DHT22;26539;51.064;6.346;2023-05-23T02:40:02;16.30;99.90
5218;DHT22;26539;51.064;6.346;2023-05-23T02:42:28;16.30;1.00
5218;DHT22;26539;51.064;6.346;2023-05-23T02:44:54;16.30;1.00
5218;DHT22;26539;51.064;6.346;2023-05-23T02:47:19;16.30;1.00
5218;DHT22;26539;51.064;6.346;2023-05-23T02:49:45;16.30;99.90
5218;DHT22;26539;51.064;6.346;2023-05-23T02:52:10;16.20;99.90
5218;DHT22;26539;51.064;6.346;2023-05-23T02:54:36;16.20;1.00
5218;DHT22;26539;51.064;6.346;2023-05-23T02:57:01;16.20;48.90
5218;DHT22;26539;51.064;6.346;2023-05-23T02:59:27;16.20;99.90
5218;DHT22;26539;51.064;6.346;2023-05-23T03:01:53;16.10;1.00
5218;DHT22;26539;51.064;6.346;2023-05-23T03:04:18;16.10;28.80
5218;DHT22;26539;51.064;6.346;2023-05-23T03:06:44;16.00;99.90
5218;DHT22;26539;51.064;6.346;2023-05-23T03:09:09;16.00;99.90
5218;DHT22;26539;51.064;6.346;2023-05-23T03:11:36;16.00;1.00
5218;DHT22;26539;51.064;6.346;2023-05-23T03:14:01;16.00;1.00
5218;DHT22;26539;51.064;6.346;2023-05-23T03:16:27;16.00;99.90
5218;DHT22;26539;51.064;6.346;2023-05-23T03:18:52;16.00;99.90
5218;DHT22;26539;51.064;6.346;2023-05-23T03:21:18;15.90;99.90
5218;DHT22;26539;51.064;6.346;2023-05-23T03:23:43;15.90;99.90
5218;DHT22;26539;51.064;6.346;2023-05-23T03:26:09;15.90;99.90
5218;DHT22;26539;51.064;6.346;2023-05-23T03:28:34;15.90;99.90
5218;DHT22;26539;51.064;6.346;2023-05-23T03:31:00;15.90;95.70
5218;DHT22;26539;51.064;6.346;2023-05-23T03:33:26;15.90;99.90
5218;DHT22;26539;51.064;6.346;2023-05-23T03:35:51;15.90;99.90
5218;DHT22;26539;51.064;6.346;2023-05-23T03:38:17;16.00;99.90
5218;DHT22;26539;51.064;6.346;2023-05-23T03:40:43;15.90;99.90
5218;DHT22;26539;51.064;6.346;2023-05-23T03:43:08;15.90;99.90
5218;DHT22;26539;51.064;6.346;2023-05-23T03:45:34;15.90;1.00
5218;DHT22;26539;51.064;6.346;2023-05-23T03:47:59;15.80;1.00
5218;DHT22;26539;51.064;6.346;2023-05-23T03:50:25;15.70;1.00
5218;DHT22;26539;51.064;6.346;2023-05-23T03:52:52;15.70;1.00
5218;DHT22;26539;51.064;6.346;2023-05-23T03:55:18;15.70;1.00
5218;DHT22;26539;51.064;6.346;2023-05-23T03:57:47;15.70;1.00
5218;DHT22;26539;51.064;6.346;2023-05-23T04:00:13;15.70;1.00
5218;DHT22;26539;51.064;6.346;2023-05-23T04:02:39;15.60;1.00
5218;DHT22;26539;51.064;6.346;2023-05-23T04:05:05;15.70;1.00
5218;DHT22;26539;51.064;6.346;2023-05-23T04:07:32;15.70;1.00
5218;DHT22;26539;51.064;6.346;2023-05-23T04:09:59;15.70;1.00
5218;DHT22;26539;51.064;6.346;2023-05-23T04:12:25;15.70;1.00
5218;DHT22;26539;51.064;6.346;2023-05-23T04:14:51;15.70;1.00
5218;DHT22;26539;51.064;6.346;2023-05-23T04:17:17;15.70;1.00
5218;DHT22;26539;51.064;6.346;2023-05-23T04:19:43;15.70;1.00
5218;DHT22;26539;51.064;6.346;2023-05-23T04:22:09;15.70;1.00
5218;DHT22;26539;51.064;6.346;2023-05-23T04:24:36;15.60;1.00
5218;DHT22;26539;51.064;6.346;2023-05-23T04:27:01;15.70;1.00
5218;DHT22;26539;51.064;6.346;2023-05-23T04:29:27;15.70;99.90
5218;DHT22;26539;51.064;6.346;2023-05-23T04:31:56;15.70;1.00
5218;DHT22;26539;51.064;6.346;2023-05-23T04:34:22;15.70;1.00
5218;DHT22;26539;51.064;6.346;2023-05-23T04:36:47;15.70;1.00
5218;DHT22;26539;51.064;6.346;2023-05-23T04:39:14;15.70;1.00
5218;DHT22;26539;51.064;6.346;2023-05-23T04:41:40;15.70;1.00
5218;DHT22;26539;51.064;6.346;2023-05-23T04:44:06;15.70;1.00
5218;DHT22;26539;51.064;6.346;2023-05-23T04:46:34;15.70;1.00
5218;DHT22;26539;51.064;6.346;2023-05-23T04:49:01;15.70;1.00
5218;DHT22;26539;51.064;6.346;2023-05-23T04:51:26;15.70;1.00
5218;DHT22;26539;51.064;6.346;2023-05-23T04:53:52;15.70;1.00
5218;DHT22;26539;51.064;6.346;2023-05-23T04:56:17;15.70;1.00
5218;DHT22;26539;51.064;6.346;2023-05-23T04:58:48;15.80;99.90
5218;DHT22;26539;51.064;6.346;2023-05-23T05:01:13;15.80;99.90
5218;DHT22;26539;51.064;6.346;2023-05-23T05:03:39;15.80;1.00
5218;DHT22;26539;51.064;6.346;2023-05-23T05:06:06;15.80;1.00
5218;DHT22;26539;51.064;6.346;2023-05-23T05:08:32;15.80;1.00
5218;DHT22;26539;51.064;6.346;2023-05-23T05:10:57;15.90;1.00
5218;DHT22;26539;51.064;6.346;2023-05-23T05:13:23;15.90;1.00
5218;DHT22;26539;51.064;6.346;2023-05-23T05:15:48;15.90;1.00
5218;DHT22;26539;51.064;6.346;2023-05-23T05:18:14;15.90;1.00
5218;DHT22;26539;51.064;6.346;2023-05-23T05:20:40;15.90;1.00
5218;DHT22;26539;51.064;6.346;2023-05-23T05:23:06;15.90;1.00
5218;DHT22;26539;51.064;6.346;2023-05-23T05:25:34;15.90;99.90
5218;DHT22;26539;51.064;6.346;2023-05-23T05:28:01;15.90;99.90
5218;DHT22;26539;51.064;6.346;2023-05-23T05:30:31;15.90;99.90
5218;DHT22;26539;51.064;6.346;2023-05-23T05:32:59;15.90;1.00
5218;DHT22;26539;51.064;6.346;2023-05-23T05:35:26;16.00;99.90
5218;DHT22;26539;51.064;6.346;2023-05-23T05:37:51;16.10;99.90
5218;DHT22;26539;51.064;6.346;2023-05-23T05:40:17;16.20;1.00
5218;DHT22;26539;51.064;6.346;2023-05-23T05:42:42;16.30;99.90
5218;DHT22;26539;51.064;6.346;2023-05-23T05:45:08;16.40;99.90
5218;DHT22;26539;51.064;6.346;2023-05-23T05:47:35;16.50;1.00
5218;DHT22;26539;51.064;6.346;2023-05-23T05:50:04;16.50;1.00
5218;DHT22;26539;51.064;6.346;2023-05-23T05:52:29;16.50;1.00
5218;DHT22;26539;51.064;6.346;2023-05-23T05:54:55;16.50;99.90
5218;DHT22;26539;51.064;6.346;2023-05-23T05:57:22;16.40;99.90
5218;DHT22;26539;51.064;6.346;2023-05-23T05:59:47;16.40;1.00
5218;DHT22;26539;51.064;6.346;2023-05-23T06:02:13;16.40;1.00
5218;DHT22;26539;51.064;6.346;2023-05-23T06:04:38;16.50;1.00
5218;DHT22;26539;51.064;6.346;2023-05-23T06:07:04;16.70;1.00
5218;DHT22;26539;51.064;6.346;2023-05-23T06:09:29;16.90;99.90
5218;DHT22;26539;51.064;6.346;2023-05-23T06:11:55;17.10;1.00
5218;DHT22;26539;51.064;6.346;2023-05-23T06:14:20;17.20;99.90
5218;DHT22;26539;51.064;6.346;2023-05-23T06:16:46;17.20;99.90
5218;DHT22;26539;51.064;6.346;2023-05-23T06:19:11;17.10;99.90
5218;DHT22;26539;51.064;6.346;2023-05-23T06:21:37;17.00;99.90
5218;DHT22;26539;51.064;6.346;2023-05-23T06:24:02;16.90;99.90
5218;DHT22;26539;51.064;6.346;2023-05-23T06:26:28;16.80;99.90
5218;DHT22;26539;51.064;6.346;2023-05-23T06:28:54;16.80;1.00
5218;DHT22;26539;51.064;6.346;2023-05-23T06:31:19;16.70;1.00
5218;DHT22;26539;51.064;6.346;2023-05-23T06:33:45;16.70;1.00
5218;DHT22;26539;51.064;6.346;2023-05-23T06:36:10;16.70;1.00
5218;DHT22;26539;51.064;6.346;2023-05-23T06:38:36;16.70;1.00
5218;DHT22;26539;51.064;6.346;2023-05-23T06:41:01;16.70;1.00
5218;DHT22;26539;51.064;6.346;2023-05-23T06:43:28;16.70;1.00
5218;DHT22;26539;51.064;6.346;2023-05-23T06:45:53;16.70;1.00
5218;DHT22;26539;51.064;6.346;2023-05-23T06:48:19;16.60;1.00
5218;DHT22;26539;51.064;6.346;2023-05-23T06:50:45;16.60;10.50
5218;DHT22;26539;51.064;6.346;2023-05-23T06:53:10;16.50;52.50
5218;DHT22;26539;51.064;6.346;2023-05-23T06:55:36;16.50;99.90
5218;DHT22;26539;51.064;6.346;2023-05-23T06:58:01;16.50;99.90
5218;DHT22;26539;51.064;6.346;2023-05-23T07:00:29;16.50;99.90
5218;DHT22;26539;51.064;6.346;2023-05-23T07:02:55;16.60;99.90
5218;DHT22;26539;51.064;6.346;2023-05-23T07:05:26;16.60;99.90
5218;DHT22;26539;51.064;6.346;2023-05-23T07:07:51;16.60;99.90
5218;DHT22;26539;51.064;6.346;2023-05-23T07:10:17;16.50;99.90
5218;DHT22;26539;51.064;6.346;2023-05-23T07:12:44;16.40;99.90
5218;DHT22;26539;51.064;6.346;2023-05-23T07:15:10;16.40;1.00
5218;DHT22;26539;51.064;6.346;2023-05-23T07:17:36;16.30;99.90
5218;DHT22;26539;51.064;6.346;2023-05-23T07:20:02;16.30;99.90
5218;DHT22;26539;51.064;6.346;2023-05-23T07:22:29;16.20;1.00
5218;DHT22;26539;51.064;6.346;2023-05-23T07:24:54;16.10;99.90
5218;DHT22;26539;51.064;6.346;2023-05-23T07:27:20;16.10;1.00
5218;DHT22;26539;51.064;6.346;2023-05-23T07:29:46;16.10;99.90
5218;DHT22;26539;51.064;6.346;2023-05-23T07:32:12;16.00;1.00
5218;DHT22;26539;51.064;6.346;2023-05-23T07:34:37;16.00;1.00
5218;DHT22;26539;51.064;6.346;2023-05-23T07:37:03;16.00;1.00
5218;DHT22;26539;51.064;6.346;2023-05-23T07:39:28;15.90;9.20
5218;DHT22;26539;51.064;6.346;2023-05-23T07:41:54;15.80;99.90
5218;DHT22;26539;51.064;6.346;2023-05-23T07:44:20;15.80;1.00
5218;DHT22;26539;51.064;6.346;2023-05-23T07:46:46;15.80;1.00
5218;DHT22;26539;51.064;6.346;2023-05-23T07:49:11;15.90;1.00
5218;DHT22;26539;51.064;6.346;2023-05-23T07:51:37;15.90;1.00
5218;DHT22;26539;51.064;6.346;2023-05-23T07:54:02;15.90;1.00
5218;DHT22;26539;51.064;6.346;2023-05-23T07:56:28;15.90;1.00
5218;DHT22;26539;51.064;6.346;2023-05-23T07:58:53;16.00;1.00
5218;DHT22;26539;51.064;6.346;2023-05-23T08:01:19;15.90;99.90
5218;DHT22;26539;51.064;6.346;2023-05-23T08:03:44;15.90;1.00
5218;DHT22;26539;51.064;6.346;2023-05-23T08:06:10;15.90;99.90
5218;DHT22;26539;51.064;6.346;2023-05-23T08:08:35;15.90;1.00
5218;DHT22;26539;51.064;6.346;2023-05-23T08:11:02;16.00;1.00
5218;DHT22;26539;51.064;6.346;2023-05-23T08:13:28;16.10;97.70
5218;DHT22;26539;51.064;6.346;2023-05-23T08:15:54;16.10;1.00
5218;DHT22;26539;51.064;6.346;2023-05-23T08:18:20;16.10;99.90
5218;DHT22;26539;51.064;6.346;2023-05-23T08:20:45;16.10;1.00
5218;DHT22;26539;51.064;6.346;2023-05-23T08:23:11;16.00;99.90
5218;DHT22;26539;51.064;6.346;2023-05-23T08:25:37;16.00;99.90
5218;DHT22;26539;51.064;6.346;2023-05-23T08:28:02;15.90;99.90
5218;DHT22;26539;51.064;6.346;2023-05-23T08:30:28;15.90;99.90
5218;DHT22;26539;51.064;6.346;2023-05-23T08:32:55;15.90;99.90
5218;DHT22;26539;51.064;6.346;2023-05-23T08:35:21;15.80;1.00
5218;DHT22;26539;51.064;6.346;2023-05-23T08:37:47;15.70;1.00
5218;DHT22;26539;51.064;6.346;2023-05-23T08:40:20;15.70;10.80
5218;DHT22;26539;51.064;6.346;2023-05-23T08:42:49;15.80;1.00
5218;DHT22;26539;51.064;6.346;2023-05-23T08:45:17;15.80;1.00
5218;DHT22;26539;51.064;6.346;2023-05-23T08:47:44;15.90;1.00
5218;DHT22;26539;51.064;6.346;2023-05-23T08:50:17;15.90;98.70
5218;DHT22;26539;51.064;6.346;2023-05-23T08:52:51;15.80;1.00
5218;DHT22;26539;51.064;6.346;2023-05-23T08:55:17;15.80;99.90
5218;DHT22;26539;51.064;6.346;2023-05-23T08:57:43;15.90;91.20
5218;DHT22;26539;51.064;6.346;2023-05-23T09:00:11;16.00;1.00
5218;DHT22;26539;51.064;6.346;2023-05-23T09:02:41;16.20;99.90
5218;DHT22;26539;51.064;6.346;2023-05-23T09:05:07;16.60;1.00
5218;DHT22;26539;51.064;6.346;2023-05-23T09:07:34;17.30;99.90
5218;DHT22;26539;51.064;6.346;2023-05-23T09:10:00;18.10;1.00
5218;DHT22;26539;51.064;6.346;2023-05-23T09:12:26;18.50;99.90
5218;DHT22;26539;51.064;6.346;2023-05-23T09:14:51;18.60;1.00
5218;DHT22;26539;51.064;6.346;2023-05-23T09:17:20;18.70;1.00
5218;DHT22;26539;51.064;6.346;2023-05-23T09:19:48;18.70;1.00
5218;DHT22;26539;51.064;6.346;2023-05-23T09:22:14;18.70;1.00
5218;DHT22;26539;51.064;6.346;2023-05-23T09:24:39;18.70;1.00
5218;DHT22;26539;51.064;6.346;2023-05-23T09:27:06;18.50;99.90
5218;DHT22;26539;51.064;6.346;2023-05-23T09:29:35;18.40;99.90
5218;DHT22;26539;51.064;6.346;2023-05-23T09:32:16;18.30;99.90
5218;DHT22;26539;51.064;6.346;2023-05-23T09:34:59;18.00;99.90
5218;DHT22;26539;51.064;6.346;2023-05-23T09:37:36;17.90;99.90
5218;DHT22;26539;51.064;6.346;2023-05-23T09:40:08;17.80;99.90
5218;DHT22;26539;51.064;6.346;2023-05-23T09:42:35;18.00;99.90
5218;DHT22;26539;51.064;6.346;2023-05-23T09:45:01;18.20;99.90
5218;DHT22;26539;51.064;6.346;2023-05-23T09:47:27;18.60;99.90
5218;DHT22;26539;51.064;6.346;2023-05-23T09:49:53;19.60;99.90
5218;DHT22;26539;51.064;6.346;2023-05-23T09:52:19;20.70;99.90
5218;DHT22;26539;51.064;6.346;2023-05-23T09:54:45;21.50;99.90
5218;DHT22;26539;51.064;6.346;2023-05-23T09:57:11;21.30;99.90
5218;DHT22;26539;51.064;6.346;2023-05-23T09:59:39;20.90;99.90
5218;DHT22;26539;51.064;6.346;2023-05-23T10:02:07;20.50;99.90
5218;DHT22;26539;51.064;6.346;2023-05-23T10:04:36;20.20;99.90
5218;DHT22;26539;51.064;6.346;2023-05-23T10:07:13;20.00;99.90
5218;DHT22;26539;51.064;6.346;2023-05-23T10:09:41;19.90;99.90
5218;DHT22;26539;51.064;6.346;2023-05-23T10:14:46;20.20;99.90
5218;DHT22;26539;51.064;6.346;2023-05-23T10:17:32;21.10;99.90
5218;DHT22;26539;51.064;6.346;2023-05-23T10:20:05;24.30;99.90
5218;DHT22;26539;51.064;6.346;2023-05-23T10:22:34;27.00;99.90
5218;DHT22;26539;51.064;6.346;2023-05-23T10:25:01;28.80;99.90
5218;DHT22;26539;51.064;6.346;2023-05-23T10:27:26;29.00;99.90
5218;DHT22;26539;51.064;6.346;2023-05-23T10:29:52;29.00;99.90
5218;DHT22;26539;51.064;6.346;2023-05-23T10:32:18;28.60;99.90
5218;DHT22;26539;51.064;6.346;2023-05-23T10:35:05;28.60;99.90
5218;DHT22;26539;51.064;6.346;2023-05-23T10:37:41;28.30;99.90
5218;DHT22;26539;51.064;6.346;2023-05-23T10:40:23;28.00;99.90
5218;DHT22;26539;51.064;6.346;2023-05-23T10:42:58;27.50;99.90
5218;DHT22;26539;51.064;6.346;2023-05-23T10:45:26;27.00;99.90
5218;DHT22;26539;51.064;6.346;2023-05-23T10:47:53;26.20;99.90
5218;DHT22;26539;51.064;6.346;2023-05-23T10:50:38;25.50;99.90
5218;DHT22;26539;51.064;6.346;2023-05-23T10:53:05;24.80;99.90
5218;DHT22;26539;51.064;6.346;2023-05-23T10:55:35;24.30;99.90
5218;DHT22;26539;51.064;6.346;2023-05-23T10:58:17;23.80;99.90
5218;DHT22;26539;51.064;6.346;2023-05-23T11:01:01;23.50;99.90
5218;DHT22;26539;51.064;6.346;2023-05-23T11:06:31;23.50;99.90
5218;DHT22;26539;51.064;6.346;2023-05-23T11:09:13;23.30;99.90
5218;DHT22;26539;51.064;6.346;2023-05-23T11:14:19;22.90;99.90
5218;DHT22;26539;51.064;6.346;2023-05-23T11:16:45;22.80;99.90
5218;DHT22;26539;51.064;6.346;2023-05-23T11:21:46;23.10;99.90
5218;DHT22;26539;51.064;6.346;2023-05-23T11:24:13;23.10;99.90
5218;DHT22;26539;51.064;6.346;2023-05-23T11:26:38;23.00;99.90
5218;DHT22;26539;51.064;6.346;2023-05-23T11:29:08;22.70;99.90
5218;DHT22;26539;51.064;6.346;2023-05-23T11:31:37;22.40;99.90
5218;DHT22;26539;51.064;6.346;2023-05-23T11:34:03;22.30;99.90
5218;DHT22;26539;51.064;6.346;2023-05-23T11:36:29;22.40;99.90
5218;DHT22;26539;51.064;6.346;2023-05-23T11:38:55;22.80;99.90
5218;DHT22;26539;51.064;6.346;2023-05-23T11:41:21;23.20;99.90
5218;DHT22;26539;51.064;6.346;2023-05-23T11:43:50;23.60;99.90
5218;DHT22;26539;51.064;6.346;2023-05-23T11:46:16;24.00;99.90
5218;DHT22;26539;51.064;6.346;2023-05-23T11:48:45;24.30;99.90
5218;DHT22;26539;51.064;6.346;2023-05-23T11:51:11;24.50;99.90
5218;DHT22;26539;51.064;6.346;2023-05-23T11:53:37;24.40;99.90
5218;DHT22;26539;51.064;6.346;2023-05-23T11:56:03;24.20;99.90
5218;DHT22;26539;51.064;6.346;2023-05-23T11:58:36;24.10;99.90
5218;DHT22;26539;51.064;6.346;2023-05-23T12:03:29;24.00;99.90
5218;DHT22;26539;51.064;6.346;2023-05-23T12:05:56;24.00;99.90
5218;DHT22;26539;51.064;6.346;2023-05-23T12:08:22;23.90;99.90
5218;DHT22;26539;51.064;6.346;2023-05-23T12:10:59;24.00;99.90
5218;DHT22;26539;51.064;6.346;2023-05-23T12:13:27;24.30;99.90
5218;DHT22;26539;51.064;6.346;2023-05-23T12:15:58;24.80;99.90
5218;DHT22;26539;51.064;6.346;2023-05-23T12:18:27;25.70;99.90
5218;DHT22;26539;51.064;6.346;2023-05-23T12:20:53;25.90;99.90
5218;DHT22;26539;51.064;6.346;2023-05-23T12:23:20;25.60;99.90
5218;DHT22;26539;51.064;6.346;2023-05-23T12:25:53;25.10;99.90
5218;DHT22;26539;51.064;6.346;2023-05-23T12:28:20;24.90;99.90
5218;DHT22;26539;51.064;6.346;2023-05-23T12:30:46;25.60;99.90
5218;DHT22;26539;51.064;6.346;2023-05-23T12:33:11;26.30;99.90
5218;DHT22;26539;51.064;6.346;2023-05-23T12:35:42;27.20;99.90
5218;DHT22;26539;51.064;6.346;2023-05-23T12:38:08;27.50;99.90
5218;DHT22;26539;51.064;6.346;2023-05-23T12:40:34;28.10;99.90
5218;DHT22;26539;51.064;6.346;2023-05-23T12:43:00;28.30;99.90
5218;DHT22;26539;51.064;6.346;2023-05-23T12:45:31;28.10;99.90
5218;DHT22;26539;51.064;6.346;2023-05-23T12:47:58;27.80;99.90
5218;DHT22;26539;51.064;6.346;2023-05-23T12:50:24;27.40;99.90
5218;DHT22;26539;51.064;6.346;2023-05-23T12:52:50;27.50;99.90
5218;DHT22;26539;51.064;6.346;2023-05-23T12:55:16;27.90;99.90
5218;DHT22;26539;51.064;6.346;2023-05-23T12:57:42;28.20;99.90
5218;DHT22;26539;51.064;6.346;2023-05-23T13:00:08;28.60;99.90
5218;DHT22;26539;51.064;6.346;2023-05-23T13:02:34;28.90;99.90
5218;DHT22;26539;51.064;6.346;2023-05-23T13:04:59;29.00;99.90
5218;DHT22;26539;51.064;6.346;2023-05-23T13:07:25;28.90;99.90
5218;DHT22;26539;51.064;6.346;2023-05-23T13:09:51;28.90;99.90
5218;DHT22;26539;51.064;6.346;2023-05-23T13:12:16;29.00;99.90
5218;DHT22;26539;51.064;6.346;2023-05-23T13:14:42;28.90;99.90
5218;DHT22;26539;51.064;6.346;2023-05-23T13:17:08;28.50;99.90
5218;DHT22;26539;51.064;6.346;2023-05-23T13:19:33;28.10;99.90
5218;DHT22;26539;51.064;6.346;2023-05-23T13:21:59;27.60;99.90
5218;DHT22;26539;51.064;6.346;2023-05-23T13:24:25;27.30;99.90
5218;DHT22;26539;51.064;6.346;2023-05-23T13:26:52;27.20;99.90
5218;DHT22;26539;51.064;6.346;2023-05-23T13:29:17;27.60;99.90
5218;DHT22;26539;51.064;6.346;2023-05-23T13:31:43;27.90;99.90
5218;DHT22;26539;51.064;6.346;2023-05-23T13:34:08;28.10;99.90
5218;DHT22;26539;51.064;6.346;2023-05-23T13:36:34;27.90;99.90
5218;DHT22;26539;51.064;6.346;2023-05-23T13:39:00;27.70;99.90
5218;DHT22;26539;51.064;6.346;2023-05-23T13:41:26;27.50;99.90
5218;DHT22;26539;51.064;6.346;2023-05-23T13:43:51;27.30;99.90
5218;DHT22;26539;51.064;6.346;2023-05-23T13:46:17;27.10;99.90
5218;DHT22;26539;51.064;6.346;2023-05-23T13:48:43;26.90;99.90
5218;DHT22;26539;51.064;6.346;2023-05-23T13:51:10;26.70;99.90
5218;DHT22;26539;51.064;6.346;2023-05-23T13:53:36;26.60;99.90
5218;DHT22;26539;51.064;6.346;2023-05-23T13:56:02;26.50;99.90
5218;DHT22;26539;51.064;6.346;2023-05-23T13:58:27;26.40;99.90
5218;DHT22;26539;51.064;6.346;2023-05-23T14:00:53;26.40;99.90
5218;DHT22;26539;51.064;6.346;2023-05-23T14:03:19;26.40;99.90
5218;DHT22;26539;51.064;6.346;2023-05-23T14:05:45;26.40;99.90
5218;DHT22;26539;51.064;6.346;2023-05-23T14:08:10;26.50;99.90
5218;DHT22;26539;51.064;6.346;2023-05-23T14:10:38;26.50;99.90
5218;DHT22;26539;51.064;6.346;2023-05-23T14:13:05;26.40;99.90
5218;DHT22;26539;51.064;6.346;2023-05-23T14:15:34;26.20;99.90
5218;DHT22;26539;51.064;6.346;2023-05-23T14:18:00;26.00;99.90
5218;DHT22;26539;51.064;6.346;2023-05-23T14:20:25;25.70;99.90
5218;DHT22;26539;51.064;6.346;2023-05-23T14:22:51;25.40;99.90
5218;DHT22;26539;51.064;6.346;2023-05-23T14:25:17;25.10;99.60
5218;DHT22;26539;51.064;6.346;2023-05-23T14:27:43;24.90;99.10
5218;DHT22;26539;51.064;6.346;2023-05-23T14:30:09;24.80;99.00
5218;DHT22;26539;51.064;6.346;2023-05-23T14:32:35;24.80;99.00
5218;DHT22;26539;51.064;6.346;2023-05-23T14:35:08;24.90;99.70
5218;DHT22;26539;51.064;6.346;2023-05-23T14:37:34;25.00;99.40
5218;DHT22;26539;51.064;6.346;2023-05-23T14:40:00;25.00;99.80
5218;DHT22;26539;51.064;6.346;2023-05-23T14:42:26;25.10;99.90
5218;DHT22;26539;51.064;6.346;2023-05-23T14:44:53;25.10;99.90
5218;DHT22;26539;51.064;6.346;2023-05-23T14:47:19;25.30;99.90
5218;DHT22;26539;51.064;6.346;2023-05-23T14:49:45;25.40;99.90
5218;DHT22;26539;51.064;6.346;2023-05-23T14:52:11;25.40;99.90
5218;DHT22;26539;51.064;6.346;2023-05-23T14:54:37;25.30;99.90
5218;DHT22;26539;51.064;6.346;2023-05-23T14:57:08;25.20;99.70
5218;DHT22;26539;51.064;6.346;2023-05-23T14:59:34;25.10;99.80
5218;DHT22;26539;51.064;6.346;2023-05-23T15:02:01;25.20;99.60
5218;DHT22;26539;51.064;6.346;2023-05-23T15:04:26;25.10;99.30
5218;DHT22;26539;51.064;6.346;2023-05-23T15:06:52;25.10;99.90
5218;DHT22;26539;51.064;6.346;2023-05-23T15:09:17;25.00;99.00
5218;DHT22;26539;51.064;6.346;2023-05-23T15:11:43;24.80;98.80
5218;DHT22;26539;51.064;6.346;2023-05-23T15:14:10;24.60;98.20
5218;DHT22;26539;51.064;6.346;2023-05-23T15:16:36;24.50;98.00
5218;DHT22;26539;51.064;6.346;2023-05-23T15:19:03;24.50;97.80
5218;DHT22;26539;51.064;6.346;2023-05-23T15:21:28;24.70;98.60
5218;DHT22;26539;51.064;6.346;2023-05-23T15:23:54;24.70;98.70
5218;DHT22;26539;51.064;6.346;2023-05-23T15:26:20;24.60;98.20
5218;DHT22;26539;51.064;6.346;2023-05-23T15:28:46;24.50;98.10
5218;DHT22;26539;51.064;6.346;2023-05-23T15:31:12;24.30;97.50
5218;DHT22;26539;51.064;6.346;2023-05-23T15:33:37;24.20;97.50
5218;DHT22;26539;51.064;6.346;2023-05-23T15:36:05;24.20;98.10
5218;DHT22;26539;51.064;6.346;2023-05-23T15:38:31;24.10;97.50
5218;DHT22;26539;51.064;6.346;2023-05-23T15:40:57;24.10;97.50
5218;DHT22;26539;51.064;6.346;2023-05-23T15:43:23;24.00;97.40
5218;DHT22;26539;51.064;6.346;2023-05-23T15:45:50;24.00;97.70
5218;DHT22;26539;51.064;6.346;2023-05-23T15:48:16;23.90;98.00
5218;DHT22;26539;51.064;6.346;2023-05-23T15:50:44;23.90;98.30
5218;DHT22;26539;51.064;6.346;2023-05-23T15:53:10;23.90;97.30
5218;DHT22;26539;51.064;6.346;2023-05-23T15:55:35;23.90;97.40
5218;DHT22;26539;51.064;6.346;2023-05-23T15:58:04;23.80;97.70
5218;DHT22;26539;51.064;6.346;2023-05-23T16:00:30;23.70;97.50
5218;DHT22;26539;51.064;6.346;2023-05-23T16:02:55;23.40;96.90
5218;DHT22;26539;51.064;6.346;2023-05-23T16:05:21;23.10;96.20
5218;DHT22;26539;51.064;6.346;2023-05-23T16:08:27;22.90;95.80
5218;DHT22;26539;51.064;6.346;2023-05-23T16:11:03;22.70;95.70